createdAt,value
2017-12-05T00:00:40.379Z,21.65
2017-12-05T00:01:40.379Z,21.68
2017-12-05T00:02:40.381Z,21.68
2017-12-05T00:03:40.384Z,21.67
2017-12-05T00:04:40.384Z,21.68
2017-12-05T00:05:40.386Z,21.67
2017-12-05T00:06:40.388Z,21.64
2017-12-05T00:07:40.394Z,21.67
2017-12-05T00:08:40.392Z,21.62
2017-12-05T00:09:40.394Z,21.67
2017-12-05T00:10:40.397Z,21.68
2017-12-05T00:11:40.397Z,21.67
2017-12-05T00:12:40.398Z,21.53
2017-12-05T00:13:40.402Z,21.58
2017-12-05T00:14:40.403Z,21.64
2017-12-05T00:15:40.403Z,21.64
2017-12-05T00:16:40.405Z,21.65
2017-12-05T00:17:40.408Z,21.61
2017-12-05T00:18:40.409Z,21.64
2017-12-05T00:19:40.410Z,21.59
2017-12-05T00:20:40.412Z,21.56
2017-12-05T00:21:40.414Z,21.69
2017-12-05T00:22:40.417Z,21.59
2017-12-05T00:23:40.425Z,21.59
2017-12-05T00:24:40.419Z,21.58
2017-12-05T00:25:40.422Z,21.62
2017-12-05T00:26:40.423Z,21.61
2017-12-05T00:27:40.425Z,21.72
2017-12-05T00:28:40.426Z,21.64
2017-12-05T00:29:40.427Z,21.56
2017-12-05T00:30:40.430Z,21.65
2017-12-05T00:31:40.435Z,21.61
2017-12-05T00:32:40.433Z,21.67
2017-12-05T00:33:40.433Z,21.54
2017-12-05T00:34:40.441Z,21.59
2017-12-05T00:35:40.440Z,21.61
2017-12-05T00:36:40.440Z,21.59
2017-12-05T00:37:40.442Z,21.59
2017-12-05T00:38:40.444Z,21.68
2017-12-05T00:39:40.443Z,21.56
2017-12-05T00:40:40.445Z,21.68
2017-12-05T00:41:40.451Z,21.62
2017-12-05T00:42:40.451Z,21.62
2017-12-05T00:43:40.453Z,21.61
2017-12-05T00:44:40.453Z,21.62
2017-12-05T00:45:40.455Z,21.69
2017-12-05T00:46:40.458Z,21.61
2017-12-05T00:47:40.461Z,21.61
2017-12-05T00:48:40.462Z,21.59
2017-12-05T00:49:40.463Z,21.54
2017-12-05T00:50:40.469Z,21.59
2017-12-05T00:51:40.467Z,21.54
2017-12-05T00:52:40.469Z,21.58
2017-12-05T00:53:40.470Z,21.67
2017-12-05T00:54:40.470Z,21.61
2017-12-05T00:55:40.474Z,21.65
2017-12-05T00:56:40.475Z,21.58
2017-12-05T00:57:40.478Z,21.67
2017-12-05T00:58:40.481Z,21.52
2017-12-05T00:59:40.481Z,21.62
2017-12-05T01:00:40.482Z,21.67
2017-12-05T01:01:40.485Z,21.65
2017-12-05T01:02:40.486Z,21.56
2017-12-05T01:03:40.489Z,21.64
2017-12-05T01:04:40.489Z,21.52
2017-12-05T01:05:40.490Z,21.65
2017-12-05T01:06:40.491Z,21.53
2017-12-05T01:07:40.494Z,21.52
2017-12-05T01:08:40.496Z,21.50
2017-12-05T01:09:40.496Z,21.59
2017-12-05T01:10:40.499Z,21.54
2017-12-05T01:11:40.502Z,21.56
2017-12-05T01:12:40.502Z,21.53
2017-12-05T01:13:40.504Z,21.53
2017-12-05T01:14:40.506Z,21.68
2017-12-05T01:15:40.510Z,21.49
2017-12-05T01:16:40.508Z,21.53
2017-12-05T01:17:40.511Z,21.53
2017-12-05T01:18:40.513Z,21.52
2017-12-05T01:19:40.515Z,21.50
2017-12-05T01:20:40.520Z,21.56
2017-12-05T01:21:40.522Z,21.58
2017-12-05T01:22:40.519Z,21.52
2017-12-05T01:23:40.522Z,21.56
2017-12-05T01:24:40.572Z,21.59
2017-12-05T01:25:40.524Z,21.54
2017-12-05T01:26:40.526Z,21.56
2017-12-05T01:27:40.533Z,21.53
2017-12-05T01:28:40.530Z,21.53
2017-12-05T01:29:40.543Z,21.54
2017-12-05T01:30:40.533Z,21.50
2017-12-05T01:31:40.535Z,21.47
2017-12-05T01:32:40.536Z,21.59
2017-12-05T01:33:40.538Z,21.56
2017-12-05T01:34:40.540Z,21.53
2017-12-05T01:35:40.573Z,21.58
2017-12-05T01:36:40.542Z,21.58
2017-12-05T01:37:40.545Z,21.54
2017-12-05T01:38:40.547Z,21.49
2017-12-05T01:39:40.549Z,21.58
2017-12-05T01:40:40.551Z,21.58
2017-12-05T01:41:40.553Z,21.58
2017-12-05T01:42:40.554Z,21.59
2017-12-05T01:43:40.556Z,21.56
2017-12-05T01:44:40.562Z,21.56
2017-12-05T01:45:40.561Z,21.52
2017-12-05T01:46:40.562Z,21.56
2017-12-05T01:47:40.564Z,21.54
2017-12-05T01:48:40.564Z,21.50
2017-12-05T01:49:40.565Z,21.58
2017-12-05T01:50:40.567Z,21.58
2017-12-05T01:51:40.571Z,21.56
2017-12-05T01:52:40.570Z,21.53
2017-12-05T01:53:40.572Z,21.54
2017-12-05T01:54:40.574Z,21.52
2017-12-05T01:55:40.574Z,21.46
2017-12-05T01:56:40.578Z,21.52
2017-12-05T01:57:40.583Z,21.53
2017-12-05T01:58:40.581Z,21.54
2017-12-05T01:59:40.585Z,21.53
2017-12-05T02:00:40.583Z,21.54
2017-12-05T02:01:40.586Z,21.52
2017-12-05T02:02:40.588Z,21.49
2017-12-05T02:03:40.589Z,21.47
2017-12-05T02:04:40.593Z,21.46
2017-12-05T02:05:40.592Z,21.53
2017-12-05T02:06:40.594Z,21.56
2017-12-05T02:07:40.596Z,21.58
2017-12-05T02:08:40.599Z,21.53
2017-12-05T02:09:40.598Z,21.50
2017-12-05T02:10:40.647Z,21.50
2017-12-05T02:11:40.602Z,21.44
2017-12-05T02:12:40.603Z,21.54
2017-12-05T02:13:40.606Z,21.50
2017-12-05T02:14:40.616Z,21.42
2017-12-05T02:15:40.614Z,21.46
2017-12-05T02:16:40.609Z,21.56
2017-12-05T02:17:40.622Z,21.42
2017-12-05T02:18:40.614Z,21.58
2017-12-05T02:19:40.616Z,21.42
2017-12-05T02:20:40.617Z,21.42
2017-12-05T02:21:40.619Z,21.54
2017-12-05T02:22:40.620Z,21.47
2017-12-05T02:23:40.623Z,21.49
2017-12-05T02:24:40.630Z,21.43
2017-12-05T02:25:40.626Z,21.44
2017-12-05T02:26:40.628Z,21.50
2017-12-05T02:27:40.637Z,21.50
2017-12-05T02:28:40.630Z,21.50
2017-12-05T02:29:40.661Z,21.47
2017-12-05T02:30:40.635Z,21.50
2017-12-05T02:31:40.638Z,21.50
2017-12-05T02:32:40.637Z,21.47
2017-12-05T02:33:40.638Z,21.42
2017-12-05T02:34:40.641Z,21.58
2017-12-05T02:35:40.665Z,21.47
2017-12-05T02:36:40.643Z,21.44
2017-12-05T02:37:40.649Z,21.58
2017-12-05T02:38:40.653Z,21.52
2017-12-05T02:39:40.653Z,21.50
2017-12-05T02:40:40.653Z,21.47
2017-12-05T02:41:40.656Z,21.43
2017-12-05T02:42:40.664Z,21.46
2017-12-05T02:43:40.666Z,21.44
2017-12-05T02:44:40.662Z,21.44
2017-12-05T02:45:40.665Z,21.50
2017-12-05T02:46:40.667Z,21.50
2017-12-05T02:47:40.665Z,21.43
2017-12-05T02:48:40.668Z,21.47
2017-12-05T02:49:40.671Z,21.50
2017-12-05T02:50:40.669Z,21.44
2017-12-05T02:51:40.670Z,21.46
2017-12-05T02:52:40.671Z,21.34
2017-12-05T02:53:40.672Z,21.50
2017-12-05T02:54:40.673Z,21.47
2017-12-05T02:55:40.676Z,21.47
2017-12-05T02:56:40.677Z,21.50
2017-12-05T02:57:40.678Z,21.44
2017-12-05T02:58:40.686Z,21.52
2017-12-05T02:59:40.683Z,21.53
2017-12-05T03:00:40.683Z,21.49
2017-12-05T03:01:40.685Z,21.44
2017-12-05T03:02:40.687Z,21.47
2017-12-05T03:03:40.689Z,21.38
2017-12-05T03:04:40.690Z,21.46
2017-12-05T03:05:40.693Z,21.47
2017-12-05T03:06:40.694Z,21.43
2017-12-05T03:07:40.696Z,21.46
2017-12-05T03:08:40.696Z,21.38
2017-12-05T03:09:40.699Z,21.43
2017-12-05T03:10:40.699Z,21.44
2017-12-05T03:11:40.702Z,21.46
2017-12-05T03:12:40.703Z,21.40
2017-12-05T03:13:40.704Z,21.40
2017-12-05T03:14:40.708Z,21.52
2017-12-05T03:15:40.708Z,21.52
2017-12-05T03:16:40.709Z,21.49
2017-12-05T03:17:40.712Z,21.53
2017-12-05T03:18:40.714Z,21.47
2017-12-05T03:19:40.715Z,21.44
2017-12-05T03:20:40.716Z,21.38
2017-12-05T03:21:40.719Z,21.53
2017-12-05T03:22:40.720Z,21.40
2017-12-05T03:23:40.722Z,21.46
2017-12-05T03:24:40.724Z,21.52
2017-12-05T03:25:40.724Z,21.47
2017-12-05T03:26:40.726Z,21.50
2017-12-05T03:27:40.728Z,21.44
2017-12-05T03:28:40.729Z,21.37
2017-12-05T03:29:40.731Z,21.49
2017-12-05T03:30:40.733Z,21.44
2017-12-05T03:31:40.735Z,21.43
2017-12-05T03:32:40.736Z,21.47
2017-12-05T03:33:40.737Z,21.53
2017-12-05T03:34:40.737Z,21.42
2017-12-05T03:35:40.741Z,21.35
2017-12-05T03:36:40.741Z,21.43
2017-12-05T03:37:40.752Z,21.40
2017-12-05T03:38:40.745Z,21.44
2017-12-05T03:39:40.750Z,21.43
2017-12-05T03:40:40.749Z,21.49
2017-12-05T03:41:40.750Z,21.42
2017-12-05T03:42:40.751Z,21.35
2017-12-05T03:43:40.754Z,21.46
2017-12-05T03:44:40.759Z,21.43
2017-12-05T03:45:40.761Z,21.47
2017-12-05T03:46:40.767Z,21.49
2017-12-05T03:47:40.764Z,21.40
2017-12-05T03:48:40.764Z,21.32
2017-12-05T03:49:40.764Z,21.46
2017-12-05T03:50:40.766Z,21.42
2017-12-05T03:51:40.767Z,21.44
2017-12-05T03:52:40.766Z,21.44
2017-12-05T03:53:40.768Z,21.40
2017-12-05T03:54:40.771Z,21.46
2017-12-05T03:55:40.773Z,21.46
2017-12-05T03:56:40.772Z,21.40
2017-12-05T03:57:40.775Z,21.40
2017-12-05T03:58:40.776Z,21.44
2017-12-05T03:59:40.779Z,21.32
2017-12-05T04:00:40.780Z,21.44
2017-12-05T04:01:40.782Z,21.44
2017-12-05T04:02:40.783Z,21.43
2017-12-05T04:03:40.785Z,21.35
2017-12-05T04:04:40.806Z,21.42
2017-12-05T04:05:40.788Z,21.34
2017-12-05T04:06:40.789Z,21.47
2017-12-05T04:07:40.791Z,21.40
2017-12-05T04:08:40.792Z,21.40
2017-12-05T04:09:40.794Z,21.43
2017-12-05T04:10:40.795Z,21.44
2017-12-05T04:11:40.797Z,21.46
2017-12-05T04:12:40.797Z,21.43
2017-12-05T04:13:40.800Z,21.34
2017-12-05T04:14:40.802Z,21.44
2017-12-05T04:15:40.806Z,21.43
2017-12-05T04:16:40.804Z,21.46
2017-12-05T04:17:40.806Z,21.44
2017-12-05T04:18:40.808Z,21.35
2017-12-05T04:19:40.812Z,21.47
2017-12-05T04:20:40.811Z,21.42
2017-12-05T04:21:40.813Z,21.44
2017-12-05T04:22:40.814Z,21.42
2017-12-05T04:23:40.816Z,21.43
2017-12-05T04:24:40.817Z,21.43
2017-12-05T04:25:40.819Z,21.38
2017-12-05T04:26:40.821Z,21.43
2017-12-05T04:27:40.823Z,21.37
2017-12-05T04:28:40.823Z,21.35
2017-12-05T04:29:40.826Z,21.42
2017-12-05T04:30:40.827Z,21.35
2017-12-05T04:31:40.829Z,21.40
2017-12-05T04:32:40.831Z,21.35
2017-12-05T04:33:40.841Z,21.37
2017-12-05T04:34:40.838Z,21.43
2017-12-05T04:35:40.836Z,21.40
2017-12-05T04:36:40.836Z,21.37
2017-12-05T04:37:40.839Z,21.43
2017-12-05T04:38:40.845Z,21.42
2017-12-05T04:39:40.854Z,21.37
2017-12-05T04:40:40.842Z,21.35
2017-12-05T04:41:40.844Z,21.34
2017-12-05T04:42:40.844Z,21.47
2017-12-05T04:43:40.850Z,21.42
2017-12-05T04:44:40.848Z,21.44
2017-12-05T04:45:40.851Z,21.37
2017-12-05T04:46:40.852Z,21.42
2017-12-05T04:47:40.887Z,21.38
2017-12-05T04:48:40.854Z,21.47
2017-12-05T04:49:40.857Z,21.49
2017-12-05T04:50:40.860Z,21.47
2017-12-05T04:51:40.860Z,21.46
2017-12-05T04:52:40.861Z,21.43
2017-12-05T04:53:40.863Z,21.43
2017-12-05T04:54:40.864Z,21.43
2017-12-05T04:55:40.866Z,21.42
2017-12-05T04:56:40.867Z,21.47
2017-12-05T04:57:40.869Z,21.44
2017-12-05T04:58:40.870Z,21.35
2017-12-05T04:59:40.872Z,21.46
2017-12-05T05:00:40.873Z,21.42
2017-12-05T05:01:40.874Z,21.46
2017-12-05T05:02:40.876Z,21.52
2017-12-05T05:03:40.883Z,21.44
2017-12-05T05:04:40.879Z,21.38
2017-12-05T05:05:40.882Z,21.44
2017-12-05T05:06:40.882Z,21.47
2017-12-05T05:07:40.884Z,21.44
2017-12-05T05:08:40.886Z,21.37
2017-12-05T05:09:40.887Z,21.49
2017-12-05T05:10:40.889Z,21.46
2017-12-05T05:11:40.890Z,21.49
2017-12-05T05:12:40.892Z,21.42
2017-12-05T05:13:40.896Z,21.43
2017-12-05T05:14:40.894Z,21.49
2017-12-05T05:15:40.897Z,21.46
2017-12-05T05:16:40.898Z,21.46
2017-12-05T05:17:40.899Z,21.46
2017-12-05T05:18:40.901Z,21.58
2017-12-05T05:19:40.904Z,21.52
2017-12-05T05:20:40.905Z,21.58
2017-12-05T05:21:40.906Z,21.56
2017-12-05T05:22:40.908Z,21.47
2017-12-05T05:23:40.912Z,21.53
2017-12-05T05:24:40.910Z,21.53
2017-12-05T05:25:40.912Z,21.54
2017-12-05T05:26:40.914Z,21.53
2017-12-05T05:28:40.923Z,21.43
2017-12-05T05:29:40.921Z,21.58
2017-12-05T05:30:40.923Z,21.49
2017-12-05T05:31:40.924Z,21.54
2017-12-05T05:32:40.927Z,21.58
2017-12-05T05:33:40.926Z,21.59
2017-12-05T05:34:40.930Z,21.59
2017-12-05T05:35:40.931Z,21.53
2017-12-05T05:36:40.930Z,21.68
2017-12-05T05:37:40.934Z,21.67
2017-12-05T05:38:40.935Z,21.53
2017-12-05T05:39:40.940Z,21.49
2017-12-05T05:40:40.938Z,21.52
2017-12-05T05:41:40.941Z,21.52
2017-12-05T05:42:40.943Z,21.47
2017-12-05T05:43:40.944Z,21.56
2017-12-05T05:44:40.948Z,21.62
2017-12-05T05:45:40.947Z,21.61
2017-12-05T05:46:40.949Z,21.52
2017-12-05T05:47:40.951Z,21.58
2017-12-05T05:48:40.954Z,21.54
2017-12-05T05:49:40.968Z,21.58
2017-12-05T05:50:40.956Z,21.49
2017-12-05T05:51:40.958Z,21.54
2017-12-05T05:52:40.959Z,21.53
2017-12-05T05:53:40.961Z,21.50
2017-12-05T05:54:40.964Z,21.50
2017-12-05T05:55:40.965Z,21.61
2017-12-05T05:56:40.967Z,21.56
2017-12-05T05:57:40.971Z,21.64
2017-12-05T05:58:40.968Z,21.54
2017-12-05T05:59:40.972Z,21.53
2017-12-05T06:00:40.976Z,21.53
2017-12-05T06:01:40.973Z,21.67
2017-12-05T06:02:40.977Z,21.50
2017-12-05T06:03:40.978Z,21.54
2017-12-05T06:04:41.029Z,21.56
2017-12-05T06:05:40.981Z,21.62
2017-12-05T06:06:40.984Z,21.65
2017-12-05T06:07:40.986Z,21.54
2017-12-05T06:08:40.987Z,21.68
2017-12-05T06:09:40.990Z,21.68
2017-12-05T06:10:40.990Z,21.62
2017-12-05T06:11:40.995Z,21.53
2017-12-05T06:12:40.993Z,21.53
2017-12-05T06:13:40.995Z,21.52
2017-12-05T06:14:41.014Z,21.52
2017-12-05T06:15:41.000Z,21.54
2017-12-05T06:16:41.000Z,21.47
2017-12-05T06:17:41.006Z,21.58
2017-12-05T06:18:41.004Z,21.58
2017-12-05T06:19:41.010Z,21.58
2017-12-05T06:20:41.007Z,21.56
2017-12-05T06:21:41.009Z,21.54
2017-12-05T06:22:41.011Z,21.56
2017-12-05T06:23:41.013Z,21.61
2017-12-05T06:24:41.014Z,21.53
2017-12-05T06:25:41.016Z,21.52
2017-12-05T06:26:41.020Z,21.59
2017-12-05T06:27:41.020Z,21.52
2017-12-05T06:28:41.022Z,21.53
2017-12-05T06:29:41.024Z,21.52
2017-12-05T06:30:41.025Z,21.58
2017-12-05T06:31:41.027Z,21.54
2017-12-05T06:32:41.031Z,21.61
2017-12-05T06:33:41.030Z,21.59
2017-12-05T06:34:41.041Z,21.54
2017-12-05T06:35:41.034Z,21.53
2017-12-05T06:36:41.035Z,21.54
2017-12-05T06:37:41.037Z,21.52
2017-12-05T06:38:41.037Z,21.52
2017-12-05T06:39:41.041Z,21.59
2017-12-05T06:40:41.044Z,21.53
2017-12-05T06:41:41.044Z,21.47
2017-12-05T06:42:41.047Z,21.53
2017-12-05T06:43:41.047Z,21.59
2017-12-05T06:44:41.049Z,21.47
2017-12-05T06:45:41.051Z,21.50
2017-12-05T06:46:41.052Z,21.54
2017-12-05T06:47:41.054Z,21.59
2017-12-05T06:48:41.055Z,21.61
2017-12-05T06:49:41.058Z,21.54
2017-12-05T06:50:41.062Z,21.50
2017-12-05T06:51:41.061Z,21.50
2017-12-05T06:52:41.064Z,21.52
2017-12-05T06:53:41.065Z,21.53
2017-12-05T06:54:41.066Z,21.49
2017-12-05T06:55:41.069Z,21.54
2017-12-05T06:56:41.071Z,21.61
2017-12-05T06:57:41.072Z,21.53
2017-12-05T06:58:41.074Z,21.52
2017-12-05T06:59:41.085Z,21.54
2017-12-05T07:00:41.082Z,21.56
2017-12-05T07:01:41.078Z,21.65
2017-12-05T07:02:41.082Z,21.67
2017-12-05T07:03:41.080Z,21.62
2017-12-05T07:04:41.192Z,21.62
2017-12-05T07:05:41.084Z,21.54
2017-12-05T07:06:41.087Z,21.58
2017-12-05T07:07:41.090Z,21.56
2017-12-05T07:08:41.090Z,21.69
2017-12-05T07:09:41.092Z,21.68
2017-12-05T07:10:41.094Z,21.59
2017-12-05T07:11:41.096Z,21.59
2017-12-05T07:12:41.098Z,21.53
2017-12-05T07:13:41.099Z,21.59
2017-12-05T07:14:41.102Z,21.59
2017-12-05T07:15:41.104Z,21.62
2017-12-05T07:16:41.111Z,21.61
2017-12-05T07:17:41.106Z,21.65
2017-12-05T07:18:41.110Z,21.56
2017-12-05T07:20:41.111Z,21.65
2017-12-05T07:21:41.117Z,21.61
2017-12-05T07:22:41.118Z,21.56
2017-12-05T07:23:41.117Z,21.68
2017-12-05T07:24:41.118Z,21.59
2017-12-05T07:25:41.120Z,21.62
2017-12-05T07:26:41.121Z,21.54
2017-12-05T07:27:41.123Z,21.62
2017-12-05T07:28:41.124Z,21.61
2017-12-05T07:29:41.128Z,21.61
2017-12-05T07:30:41.129Z,21.61
2017-12-05T07:31:41.132Z,21.61
2017-12-05T07:32:41.132Z,21.65
2017-12-05T07:33:41.134Z,21.67
2017-12-05T07:34:41.140Z,21.64
2017-12-05T07:35:41.138Z,21.80
2017-12-05T07:36:41.139Z,21.77
2017-12-05T07:37:41.141Z,21.79
2017-12-05T07:38:41.143Z,21.79
2017-12-05T07:39:41.145Z,21.86
2017-12-05T07:40:41.146Z,21.88
2017-12-05T07:41:41.150Z,21.86
2017-12-05T07:42:41.149Z,21.90
2017-12-05T07:43:41.151Z,22.00
2017-12-05T07:44:41.162Z,21.98
2017-12-05T07:45:41.163Z,21.96
2017-12-05T07:46:41.165Z,22.00
2017-12-05T07:47:41.163Z,22.03
2017-12-05T07:48:41.167Z,22.03
2017-12-05T07:49:41.168Z,22.07
2017-12-05T07:50:41.170Z,22.02
2017-12-05T07:51:41.168Z,22.15
2017-12-05T07:52:41.183Z,22.02
2017-12-05T07:53:41.178Z,22.06
2017-12-05T07:54:41.178Z,22.03
2017-12-05T07:55:41.176Z,22.09
2017-12-05T07:56:41.184Z,22.10
2017-12-05T07:57:41.236Z,22.14
2017-12-05T07:58:41.183Z,22.12
2017-12-05T07:59:41.184Z,22.15
2017-12-05T08:00:41.187Z,22.17
2017-12-05T08:01:41.201Z,22.25
2017-12-05T08:02:41.189Z,22.21
2017-12-05T08:03:41.192Z,22.21
2017-12-05T08:04:41.190Z,22.18
2017-12-05T08:05:41.196Z,22.18
2017-12-05T08:06:41.203Z,22.17
2017-12-05T08:07:41.199Z,22.20
2017-12-05T08:08:41.202Z,22.28
2017-12-05T08:09:41.206Z,22.30
2017-12-05T08:10:41.207Z,22.14
2017-12-05T08:11:41.209Z,22.33
2017-12-05T08:12:41.210Z,22.24
2017-12-05T08:13:41.212Z,22.27
2017-12-05T08:14:41.216Z,22.30
2017-12-05T08:15:41.217Z,22.28
2017-12-05T08:16:41.219Z,22.30
2017-12-05T08:17:41.220Z,22.33
2017-12-05T08:18:41.223Z,22.31
2017-12-05T08:19:41.226Z,22.24
2017-12-05T08:20:41.225Z,22.25
2017-12-05T08:21:41.234Z,22.28
2017-12-05T08:22:41.232Z,22.27
2017-12-05T08:23:41.233Z,22.28
2017-12-05T08:24:41.241Z,22.33
2017-12-05T08:25:41.260Z,22.27
2017-12-05T08:26:41.240Z,22.31
2017-12-05T08:27:41.244Z,22.27
2017-12-05T08:28:41.253Z,22.31
2017-12-05T08:29:41.248Z,22.22
2017-12-05T08:30:41.251Z,22.31
2017-12-05T08:31:41.254Z,22.33
2017-12-05T08:32:41.255Z,22.27
2017-12-05T08:33:41.256Z,22.28
2017-12-05T08:34:41.258Z,22.31
2017-12-05T08:35:41.262Z,22.28
2017-12-05T08:36:41.274Z,22.30
2017-12-05T08:37:41.269Z,22.28
2017-12-05T08:38:41.268Z,22.33
2017-12-05T08:39:41.272Z,22.31
2017-12-05T08:40:41.271Z,22.25
2017-12-05T08:41:41.276Z,22.31
2017-12-05T08:42:41.277Z,22.36
2017-12-05T08:43:41.278Z,22.33
2017-12-05T08:44:41.285Z,22.37
2017-12-05T08:45:41.285Z,22.31
2017-12-05T08:46:41.286Z,22.28
2017-12-05T08:47:41.290Z,22.37
2017-12-05T08:48:41.307Z,22.28
2017-12-05T08:49:41.292Z,22.30
2017-12-05T08:50:41.296Z,22.31
2017-12-05T08:51:41.308Z,22.27
2017-12-05T08:52:41.296Z,22.30
2017-12-05T08:53:41.300Z,22.27
2017-12-05T08:54:41.321Z,22.24
2017-12-05T08:55:41.306Z,22.25
2017-12-05T08:56:41.306Z,22.27
2017-12-05T08:57:41.311Z,22.30
2017-12-05T08:58:41.312Z,22.28
2017-12-05T08:59:41.314Z,22.30
2017-12-05T09:00:41.319Z,22.42
2017-12-05T09:01:41.318Z,22.35
2017-12-05T09:02:41.320Z,22.37
2017-12-05T09:03:41.322Z,22.42
2017-12-05T09:04:41.324Z,22.45
2017-12-05T09:05:41.329Z,22.36
2017-12-05T09:06:41.329Z,22.43
2017-12-05T09:07:41.332Z,22.46
2017-12-05T09:08:41.334Z,22.49
2017-12-05T09:09:41.341Z,22.47
2017-12-05T09:10:41.339Z,22.54
2017-12-05T09:11:41.342Z,22.45
2017-12-05T09:12:41.345Z,22.51
2017-12-05T09:13:41.346Z,22.39
2017-12-05T09:14:41.350Z,22.43
2017-12-05T09:15:41.352Z,22.45
2017-12-05T09:16:41.353Z,22.46
2017-12-05T09:17:41.357Z,22.43
2017-12-05T09:18:41.358Z,22.51
2017-12-05T09:19:41.363Z,22.51
2017-12-05T09:20:41.365Z,22.52
2017-12-05T09:21:41.368Z,22.51
2017-12-05T09:22:41.369Z,22.54
2017-12-05T09:23:41.371Z,22.49
2017-12-05T09:24:41.371Z,22.45
2017-12-05T09:25:41.375Z,22.51
2017-12-05T09:26:41.379Z,22.49
2017-12-05T09:27:41.381Z,22.39
2017-12-05T09:28:41.389Z,22.46
2017-12-05T09:29:41.412Z,22.45
2017-12-05T09:30:41.386Z,22.45
2017-12-05T09:31:41.393Z,22.47
2017-12-05T09:32:41.392Z,22.46
2017-12-05T09:33:41.395Z,22.46
2017-12-05T09:34:41.398Z,22.51
2017-12-05T09:35:41.398Z,22.49
2017-12-05T09:36:41.401Z,22.51
2017-12-05T09:37:41.403Z,22.47
2017-12-05T09:38:41.406Z,22.35
2017-12-05T09:39:41.410Z,22.47
2017-12-05T09:40:41.410Z,22.36
2017-12-05T09:41:41.412Z,22.42
2017-12-05T09:42:41.412Z,22.47
2017-12-05T09:43:41.417Z,22.47
2017-12-05T09:44:41.418Z,22.46
2017-12-05T09:45:41.433Z,22.37
2017-12-05T09:46:41.423Z,22.45
2017-12-05T09:47:41.427Z,22.42
2017-12-05T09:48:41.428Z,22.35
2017-12-05T09:49:41.437Z,22.47
2017-12-05T09:50:41.437Z,22.47
2017-12-05T09:51:41.435Z,22.45
2017-12-05T09:52:41.437Z,22.49
2017-12-05T09:53:41.438Z,22.37
2017-12-05T09:54:41.441Z,22.46
2017-12-05T09:55:41.444Z,22.49
2017-12-05T09:56:41.445Z,22.45
2017-12-05T09:57:41.447Z,22.36
2017-12-05T09:58:41.449Z,22.46
2017-12-05T09:59:41.464Z,22.45
2017-12-05T10:00:41.453Z,22.45
2017-12-05T10:01:41.459Z,22.35
2017-12-05T10:02:41.458Z,22.45
2017-12-05T10:03:41.462Z,22.51
2017-12-05T10:04:41.462Z,22.49
2017-12-05T10:05:41.464Z,22.51
2017-12-05T10:06:41.466Z,22.51
2017-12-05T10:07:41.469Z,22.55
2017-12-05T10:08:41.470Z,22.49
2017-12-05T10:09:41.472Z,22.54
2017-12-05T10:10:41.474Z,22.60
2017-12-05T10:11:41.479Z,22.49
2017-12-05T10:12:41.479Z,22.61
2017-12-05T10:13:41.489Z,22.64
2017-12-05T10:14:41.486Z,22.54
2017-12-05T10:15:41.487Z,22.58
